Terminal Aerodrome Forecast
Issued by NWS

Home | Current Version | Previous Version | Text Only | Print | Product List | Glossary On
Versions: 1 2 3 4 5 6 7 8 9 10 11 12 13
065
FTUS43 KAPX 191722
TAFPLN
TAF
KPLN 191722Z 1918/2018 31007KT P6SM FEW200
     FM192300 VRB03KT P6SM SCT200
     FM200500 00000KT 5SM BR SCT200
     FM200800 11004KT 2SM BR SCT110
     FM201000 11005KT 3SM BR SCT150
     FM201500 12007KT 6SM BR SCT060=

USA.gov is the U.S. government's official web portal to all federal, state and local government web resources and services.